createdAt,value
2018-03-27T00:01:33.042Z,5.55
2018-03-27T00:04:01.362Z,5.54
2018-03-27T00:06:29.707Z,5.45
2018-03-27T00:08:58.035Z,5.44
2018-03-27T00:11:26.370Z,5.51
2018-03-27T00:13:54.694Z,5.53
2018-03-27T00:16:23.040Z,5.54
2018-03-27T00:18:51.357Z,5.57
2018-03-27T00:21:19.742Z,5.55
2018-03-27T00:23:48.404Z,5.55
2018-03-27T00:26:16.735Z,5.55
2018-03-27T00:28:56.687Z,5.52
2018-03-27T00:31:42.670Z,5.47
2018-03-27T00:34:28.917Z,5.45
2018-03-27T00:37:15.031Z,5.44
2018-03-27T00:40:01.183Z,5.43
2018-03-27T00:42:42.890Z,5.39
2018-03-27T00:45:10.954Z,5.44
2018-03-27T00:47:38.990Z,5.40
2018-03-27T00:50:07.054Z,5.39
2018-03-27T00:52:35.374Z,5.37
2018-03-27T00:55:03.695Z,5.40
2018-03-27T00:57:32.036Z,5.35
2018-03-27T01:00:00.346Z,5.26
2018-03-27T01:02:28.682Z,5.29
2018-03-27T01:04:57.002Z,5.35
2018-03-27T01:07:25.346Z,5.35
2018-03-27T01:09:53.666Z,5.36
2018-03-27T01:12:22.006Z,5.34
2018-03-27T01:14:50.330Z,5.38
2018-03-27T01:17:18.666Z,5.40
2018-03-27T01:19:46.995Z,5.41
2018-03-27T01:22:15.337Z,5.38
2018-03-27T01:24:43.657Z,5.41
2018-03-27T01:27:11.993Z,5.42
2018-03-27T01:29:40.309Z,5.44
2018-03-27T01:32:08.649Z,5.40
2018-03-27T01:34:36.970Z,5.45
2018-03-27T01:37:05.306Z,5.45
2018-03-27T01:39:33.621Z,5.37
2018-03-27T01:42:01.966Z,5.22
2018-03-27T01:44:30.287Z,5.15
2018-03-27T01:46:58.634Z,5.20
2018-03-27T01:49:26.949Z,5.13
2018-03-27T01:51:55.290Z,5.20
2018-03-27T01:54:23.610Z,5.20
2018-03-27T01:56:52.001Z,5.28
2018-03-27T01:59:20.321Z,5.71
2018-03-27T02:01:48.663Z,5.87
2018-03-27T02:04:16.986Z,5.99
2018-03-27T02:06:45.330Z,6.08
2018-03-27T02:09:13.657Z,6.13
2018-03-27T02:11:47.714Z,6.12
2018-03-27T02:14:21.702Z,6.04
2018-03-27T02:16:55.514Z,6.01
2018-03-27T02:19:29.409Z,6.01
2018-03-27T02:21:57.190Z,6.05
2018-03-27T02:24:26.291Z,6.11
2018-03-27T02:26:54.635Z,6.17
2018-03-27T02:29:22.954Z,6.12
2018-03-27T02:31:51.298Z,6.15
2018-03-27T02:34:19.610Z,6.15
2018-03-27T02:36:47.958Z,6.07
2018-03-27T02:39:16.281Z,6.02
2018-03-27T02:41:44.622Z,6.04
2018-03-27T02:44:12.939Z,6.01
2018-03-27T02:46:41.282Z,6.00
2018-03-27T02:49:09.607Z,5.99
2018-03-27T02:51:37.946Z,5.94
2018-03-27T02:54:06.266Z,5.97
2018-03-27T02:56:34.602Z,6.01
2018-03-27T02:59:02.924Z,6.00
2018-03-27T03:01:31.259Z,5.93
2018-03-27T03:03:59.584Z,5.72
2018-03-27T03:06:27.928Z,5.63
2018-03-27T03:08:56.246Z,5.67
2018-03-27T03:11:24.606Z,5.72
2018-03-27T03:13:52.934Z,5.73
2018-03-27T03:16:21.253Z,5.73
2018-03-27T03:18:49.597Z,5.73
2018-03-27T03:21:17.918Z,5.74
2018-03-27T03:23:46.273Z,5.71
2018-03-27T03:26:14.590Z,5.63
2018-03-27T03:28:42.931Z,5.64
2018-03-27T03:31:11.258Z,5.67
2018-03-27T03:33:39.594Z,5.65
2018-03-27T03:36:07.922Z,5.65
2018-03-27T03:38:36.262Z,5.61
2018-03-27T03:41:04.586Z,5.61
2018-03-27T03:43:32.926Z,5.54
2018-03-27T03:46:01.246Z,5.48
2018-03-27T03:48:29.638Z,5.47
2018-03-27T03:50:57.962Z,5.43
2018-03-27T03:53:26.305Z,5.37
2018-03-27T03:55:54.626Z,5.33
2018-03-27T03:58:22.957Z,5.29
2018-03-27T04:00:51.278Z,5.20
2018-03-27T04:03:19.619Z,5.18
2018-03-27T04:05:47.937Z,5.08
2018-03-27T04:08:16.287Z,5.02
2018-03-27T04:10:44.604Z,4.89
2018-03-27T04:13:12.945Z,4.89
2018-03-27T04:15:41.258Z,4.62
2018-03-27T04:18:09.602Z,4.68
2018-03-27T04:20:37.922Z,4.79
2018-03-27T04:23:06.262Z,4.88
2018-03-27T04:25:34.586Z,4.89
2018-03-27T04:28:02.921Z,4.89
2018-03-27T04:30:31.237Z,4.93
2018-03-27T04:32:59.586Z,4.96
2018-03-27T04:35:27.903Z,4.95
2018-03-27T04:37:56.243Z,4.90
2018-03-27T04:40:24.575Z,4.91
2018-03-27T04:42:52.924Z,4.91
2018-03-27T04:45:21.244Z,4.89
2018-03-27T04:47:49.607Z,4.94
2018-03-27T04:50:17.932Z,4.95
2018-03-27T04:52:46.270Z,4.95
2018-03-27T04:55:14.590Z,4.86
2018-03-27T04:57:42.937Z,4.75
2018-03-27T05:00:11.259Z,4.58
2018-03-27T05:02:39.790Z,4.61
2018-03-27T05:05:08.142Z,4.73
2018-03-27T05:07:36.486Z,4.81
2018-03-27T05:10:04.811Z,4.76
2018-03-27T05:12:33.154Z,4.65
2018-03-27T05:15:01.474Z,4.51
2018-03-27T05:17:29.818Z,4.46
2018-03-27T05:19:58.147Z,4.52
2018-03-27T05:22:27.122Z,4.64
2018-03-27T05:24:55.462Z,4.70
2018-03-27T05:27:23.809Z,4.72
2018-03-27T05:29:52.186Z,4.64
2018-03-27T05:32:20.511Z,4.65
2018-03-27T05:34:48.855Z,4.66
2018-03-27T05:37:17.177Z,4.79
2018-03-27T05:39:45.518Z,4.80
2018-03-27T05:42:13.988Z,4.86
2018-03-27T05:44:42.363Z,4.86
2018-03-27T05:47:10.686Z,4.91
2018-03-27T05:49:39.038Z,4.83
2018-03-27T05:52:07.686Z,4.73
2018-03-27T05:54:36.055Z,4.70
2018-03-27T05:57:04.473Z,4.68
2018-03-27T05:59:32.807Z,4.69
2018-03-27T06:02:01.226Z,4.60
2018-03-27T06:04:30.558Z,4.65
2018-03-27T06:06:59.381Z,4.59
2018-03-27T06:09:27.722Z,4.61
2018-03-27T06:11:56.042Z,4.51
2018-03-27T06:14:24.390Z,4.55
2018-03-27T06:16:52.711Z,4.73
2018-03-27T06:19:21.060Z,4.85
2018-03-27T06:21:49.377Z,4.94
2018-03-27T06:24:17.726Z,4.95
2018-03-27T06:26:49.232Z,4.96
2018-03-27T06:29:17.574Z,5.06
2018-03-27T06:31:46.333Z,5.17
2018-03-27T06:34:14.671Z,5.30
2018-03-27T06:36:43.915Z,5.34
2018-03-27T06:39:13.110Z,5.21
2018-03-27T06:41:41.438Z,5.10
2018-03-27T06:44:09.790Z,5.15
2018-03-27T06:46:38.111Z,5.20
2018-03-27T06:49:06.458Z,5.40
2018-03-27T06:51:34.790Z,5.56
2018-03-27T06:54:03.139Z,5.62
2018-03-27T06:56:31.471Z,5.68
2018-03-27T06:58:59.855Z,5.59
2018-03-27T07:01:28.145Z,5.58
2018-03-27T07:03:56.497Z,5.62
2018-03-27T07:06:24.858Z,5.78
2018-03-27T07:11:26.925Z,5.99
2018-03-27T07:13:55.284Z,6.13
2018-03-27T07:16:23.620Z,6.14
2018-03-27T07:18:51.999Z,6.20
2018-03-27T07:21:20.296Z,6.32
2018-03-27T07:23:48.644Z,6.45
2018-03-27T07:26:16.968Z,6.52
2018-03-27T07:28:45.286Z,6.47
2018-03-27T07:31:13.635Z,6.47
2018-03-27T07:33:41.954Z,6.52
2018-03-27T07:36:10.749Z,6.66
2018-03-27T07:38:39.071Z,6.66
2018-03-27T07:41:07.434Z,6.61
2018-03-27T07:43:35.758Z,6.72
2018-03-27T07:46:04.118Z,6.79
2018-03-27T07:48:32.434Z,6.93
2018-03-27T07:51:00.778Z,6.92
2018-03-27T07:53:29.106Z,6.99
2018-03-27T07:55:57.450Z,7.11
2018-03-27T07:58:25.782Z,7.20
2018-03-27T08:00:54.130Z,7.25
2018-03-27T08:03:22.460Z,7.31
2018-03-27T08:05:50.819Z,7.39
2018-03-27T08:08:19.206Z,7.45
2018-03-27T08:10:47.554Z,7.60
2018-03-27T08:13:15.878Z,7.66
2018-03-27T08:15:44.238Z,7.77
2018-03-27T08:18:12.554Z,7.83
2018-03-27T08:20:40.902Z,8.03
2018-03-27T08:23:09.247Z,8.20
2018-03-27T08:25:37.590Z,8.34
2018-03-27T08:28:05.913Z,8.48
2018-03-27T08:30:34.262Z,8.55
2018-03-27T08:33:02.582Z,8.65
2018-03-27T08:35:30.934Z,8.66
2018-03-27T08:37:59.263Z,8.76
2018-03-27T08:40:27.614Z,8.84
2018-03-27T08:42:55.938Z,8.91
2018-03-27T08:45:24.284Z,8.97
2018-03-27T08:47:52.606Z,9.03
2018-03-27T08:50:21.394Z,9.13
2018-03-27T08:52:49.722Z,9.22
2018-03-27T08:55:18.072Z,9.21
2018-03-27T08:57:46.401Z,9.26
2018-03-27T09:00:14.742Z,9.32
2018-03-27T09:02:43.074Z,9.34
2018-03-27T09:05:11.417Z,9.40
2018-03-27T09:07:39.973Z,9.44
2018-03-27T09:10:08.423Z,9.43
2018-03-27T09:12:36.743Z,9.52
2018-03-27T09:15:05.085Z,9.61
2018-03-27T09:17:33.409Z,9.70
2018-03-27T09:20:01.755Z,9.86
2018-03-27T09:22:30.303Z,9.86
2018-03-27T09:24:58.746Z,9.87
2018-03-27T09:27:27.072Z,10.07
2018-03-27T09:29:55.913Z,10.14
2018-03-27T09:32:24.367Z,10.13
2018-03-27T09:34:52.813Z,10.18
2018-03-27T09:37:21.254Z,10.13
2018-03-27T09:39:49.586Z,10.28
2018-03-27T09:42:17.970Z,10.41
2018-03-27T09:44:46.294Z,10.61
2018-03-27T09:47:14.738Z,10.75
2018-03-27T09:49:43.435Z,10.76
2018-03-27T09:52:11.782Z,10.96
2018-03-27T09:54:40.106Z,11.02
2018-03-27T09:57:08.488Z,10.94
2018-03-27T09:59:36.825Z,10.84
2018-03-27T10:02:05.206Z,10.68
2018-03-27T10:04:33.514Z,10.65
2018-03-27T10:07:01.866Z,10.59
2018-03-27T10:09:30.363Z,10.60
2018-03-27T10:11:58.719Z,10.68
2018-03-27T10:14:27.049Z,10.69
2018-03-27T10:16:55.402Z,10.75
2018-03-27T10:19:23.751Z,10.95
2018-03-27T10:21:52.110Z,10.91
2018-03-27T10:24:20.432Z,11.00
2018-03-27T10:26:48.862Z,11.13
2018-03-27T10:29:17.187Z,11.40
2018-03-27T10:31:45.538Z,11.51
2018-03-27T10:34:13.866Z,11.57
2018-03-27T10:36:42.215Z,11.63
2018-03-27T10:39:10.547Z,11.64
2018-03-27T10:41:38.901Z,11.65
2018-03-27T10:44:07.230Z,11.63
2018-03-27T10:46:37.402Z,11.63
2018-03-27T10:49:05.945Z,11.64
2018-03-27T10:51:34.355Z,11.59
2018-03-27T10:54:02.696Z,11.63
2018-03-27T10:56:31.039Z,11.61
2018-03-27T10:58:59.370Z,11.63
2018-03-27T11:01:27.722Z,11.80
2018-03-27T11:03:56.061Z,11.78
2018-03-27T11:06:24.426Z,11.74
2018-03-27T11:08:52.755Z,11.70
2018-03-27T11:11:21.151Z,11.84
2018-03-27T11:13:49.496Z,11.89
2018-03-27T11:16:18.746Z,11.83
2018-03-27T11:18:47.097Z,11.74
2018-03-27T11:21:15.446Z,11.47
2018-03-27T11:23:43.769Z,11.32
2018-03-27T11:26:12.181Z,11.30
2018-03-27T11:28:40.512Z,11.46
2018-03-27T11:31:08.895Z,11.83
2018-03-27T11:33:37.241Z,12.10
2018-03-27T11:36:05.602Z,12.28
2018-03-27T11:38:34.062Z,12.23
2018-03-27T11:41:02.443Z,12.30
2018-03-27T11:43:30.857Z,12.29
2018-03-27T11:45:59.368Z,12.15
2018-03-27T11:48:27.714Z,11.92
2018-03-27T11:50:56.100Z,11.74
2018-03-27T11:53:24.442Z,11.66
2018-03-27T11:55:52.837Z,11.75
2018-03-27T11:58:21.221Z,11.85
2018-03-27T12:03:48.534Z,12.12
2018-03-27T12:06:16.970Z,12.14
2018-03-27T12:08:45.318Z,12.36
2018-03-27T12:11:13.663Z,12.59
2018-03-27T12:13:42.024Z,12.64
2018-03-27T12:16:10.841Z,12.63
2018-03-27T12:18:39.213Z,12.55
2018-03-27T12:21:07.636Z,12.62
2018-03-27T12:23:36.027Z,12.84
2018-03-27T12:26:04.515Z,13.03
2018-03-27T12:28:32.858Z,12.89
2018-03-27T12:31:01.199Z,12.92
2018-03-27T12:33:29.601Z,12.88
2018-03-27T12:35:57.921Z,12.96
2018-03-27T12:38:26.323Z,12.97
2018-03-27T12:40:54.658Z,13.11
2018-03-27T12:43:23.015Z,13.12
2018-03-27T12:45:52.226Z,13.16
2018-03-27T12:48:20.587Z,13.11
2018-03-27T12:50:48.960Z,13.07
2018-03-27T12:53:17.342Z,12.98
2018-03-27T12:55:45.646Z,13.07
2018-03-27T12:58:14.001Z,13.05
2018-03-27T13:00:42.333Z,13.00
2018-03-27T13:03:10.741Z,12.99
2018-03-27T13:05:39.093Z,13.08
2018-03-27T13:08:07.437Z,13.13
2018-03-27T13:10:35.779Z,13.25
2018-03-27T13:13:04.134Z,13.30
2018-03-27T13:15:32.466Z,13.39
2018-03-27T13:18:00.826Z,13.41
2018-03-27T13:20:29.158Z,13.45
2018-03-27T13:22:57.524Z,13.49
2018-03-27T13:25:25.869Z,13.43
2018-03-27T13:27:54.215Z,13.34
2018-03-27T13:30:22.567Z,13.22
2018-03-27T13:32:50.934Z,13.19
2018-03-27T13:35:19.266Z,13.23
2018-03-27T13:37:47.631Z,13.30
2018-03-27T13:40:15.961Z,13.38
2018-03-27T13:42:44.310Z,13.67
2018-03-27T13:45:13.697Z,13.73
2018-03-27T13:47:42.043Z,13.92
2018-03-27T13:50:10.379Z,13.88
2018-03-27T13:52:38.735Z,13.70
2018-03-27T13:55:07.067Z,13.61
2018-03-27T13:57:35.425Z,13.75
2018-03-27T14:00:03.768Z,13.75
2018-03-27T14:02:32.148Z,13.67
2018-03-27T14:05:00.466Z,13.58
2018-03-27T14:07:28.803Z,13.43
2018-03-27T14:09:57.157Z,13.39
2018-03-27T14:12:25.500Z,13.46
2018-03-27T14:14:53.849Z,13.37
2018-03-27T14:17:22.203Z,13.30
2018-03-27T14:20:08.476Z,13.22
2018-03-27T14:22:38.960Z,13.11
2018-03-27T14:25:07.378Z,13.09
2018-03-27T14:27:35.756Z,13.10
2018-03-27T14:30:04.147Z,13.32
2018-03-27T14:32:32.532Z,13.41
2018-03-27T14:35:01.062Z,13.51
2018-03-27T14:37:29.511Z,13.63
2018-03-27T14:39:57.929Z,13.65
2018-03-27T14:42:26.322Z,13.72
2018-03-27T14:44:54.721Z,13.81
2018-03-27T14:47:23.323Z,13.83
2018-03-27T14:49:51.711Z,13.88
2018-03-27T14:52:20.104Z,13.83
2018-03-27T14:54:48.645Z,13.75
2018-03-27T14:57:16.968Z,13.42
2018-03-27T14:59:45.415Z,13.40
2018-03-27T15:02:13.784Z,13.41
2018-03-27T15:04:42.187Z,13.38
2018-03-27T15:07:10.521Z,13.50
2018-03-27T15:09:38.929Z,13.36
2018-03-27T15:12:07.342Z,13.46
2018-03-27T15:14:35.678Z,13.56
2018-03-27T15:17:04.019Z,13.55
2018-03-27T15:19:32.422Z,13.43
2018-03-27T15:22:00.775Z,13.39
2018-03-27T15:24:29.134Z,13.38
2018-03-27T15:26:57.481Z,13.34
2018-03-27T15:29:25.875Z,13.36
2018-03-27T15:31:54.206Z,13.35
2018-03-27T15:34:23.306Z,13.37
2018-03-27T15:36:51.637Z,13.28
2018-03-27T15:39:20.054Z,13.14
2018-03-27T15:41:48.394Z,13.05
2018-03-27T15:44:16.741Z,13.04
2018-03-27T15:46:46.062Z,12.99
2018-03-27T15:49:14.458Z,12.96
2018-03-27T15:51:42.854Z,12.98
2018-03-27T15:54:11.199Z,12.99
2018-03-27T15:56:39.537Z,12.93
2018-03-27T15:59:08.533Z,12.93
2018-03-27T16:01:36.882Z,12.88
2018-03-27T16:04:05.346Z,12.88
2018-03-27T16:06:33.786Z,12.82
2018-03-27T16:09:02.158Z,12.77
2018-03-27T16:11:30.499Z,12.71
2018-03-27T16:13:58.869Z,12.66
2018-03-27T16:16:28.180Z,12.70
2018-03-27T16:18:56.543Z,12.64
2018-03-27T16:21:24.878Z,12.62
2018-03-27T16:23:53.250Z,12.59
2018-03-27T16:26:21.584Z,12.63
2018-03-27T16:28:49.953Z,12.59
2018-03-27T16:31:18.330Z,12.59
2018-03-27T16:33:46.661Z,12.60
2018-03-27T16:36:15.031Z,12.61
2018-03-27T16:38:43.365Z,12.54
2018-03-27T16:41:11.730Z,12.50
2018-03-27T16:43:40.071Z,12.57
2018-03-27T16:46:08.432Z,12.63
2018-03-27T16:48:36.763Z,12.54
2018-03-27T16:51:05.118Z,12.54
2018-03-27T16:53:33.453Z,12.50
2018-03-27T16:56:01.805Z,12.63
2018-03-27T16:58:30.142Z,12.53
2018-03-27T17:00:58.510Z,12.53
2018-03-27T17:03:27.753Z,12.50
2018-03-27T17:05:56.266Z,12.39
2018-03-27T17:08:24.610Z,12.37
2018-03-27T17:10:53.007Z,12.40
2018-03-27T17:13:22.482Z,12.32
2018-03-27T17:15:50.854Z,12.34
2018-03-27T17:18:19.226Z,12.25
2018-03-27T17:20:47.583Z,12.32
2018-03-27T17:23:15.915Z,12.30
2018-03-27T17:25:44.274Z,12.24
2018-03-27T17:28:12.606Z,12.21
2018-03-27T17:30:40.966Z,12.23
2018-03-27T17:33:09.346Z,12.14
2018-03-27T17:35:37.810Z,12.13
2018-03-27T17:38:06.148Z,12.15
2018-03-27T17:40:34.692Z,12.15
2018-03-27T17:43:03.022Z,12.17
2018-03-27T17:45:31.445Z,12.15
2018-03-27T17:47:59.762Z,12.56
2018-03-27T17:50:28.119Z,12.39
2018-03-27T17:52:56.450Z,12.40
2018-03-27T17:55:24.802Z,12.42
2018-03-27T17:57:53.139Z,12.40
2018-03-27T18:00:21.492Z,12.39
2018-03-27T18:02:49.831Z,12.42
2018-03-27T18:05:18.169Z,12.45
2018-03-27T18:07:46.502Z,12.51
2018-03-27T18:10:14.854Z,12.64
2018-03-27T18:12:43.197Z,12.67
2018-03-27T18:15:11.698Z,12.69
2018-03-27T18:17:40.040Z,12.66
2018-03-27T18:20:08.385Z,12.94
2018-03-27T18:22:36.723Z,12.58
2018-03-27T18:25:05.096Z,12.45
2018-03-27T18:27:33.413Z,12.44
2018-03-27T18:30:01.746Z,12.45
2018-03-27T18:32:30.934Z,12.41
2018-03-27T18:34:59.258Z,12.22
2018-03-27T18:37:27.614Z,12.06
2018-03-27T18:39:55.942Z,11.90
2018-03-27T18:42:24.363Z,12.05
2018-03-27T18:44:53.456Z,12.06
2018-03-27T18:47:21.944Z,12.05
2018-03-27T18:49:50.292Z,11.92
2018-03-27T18:52:18.642Z,11.80
2018-03-27T18:54:46.978Z,11.74
2018-03-27T18:57:15.335Z,11.84
2018-03-27T18:59:43.658Z,11.91
2018-03-27T19:02:12.018Z,11.86
2018-03-27T19:04:40.357Z,11.86
2018-03-27T19:07:08.706Z,11.88
2018-03-27T19:09:37.144Z,11.81
2018-03-27T19:12:05.510Z,11.73
2018-03-27T19:14:35.661Z,11.71
2018-03-27T19:17:04.014Z,11.66
2018-03-27T19:19:33.194Z,11.56
2018-03-27T19:22:01.596Z,11.47
2018-03-27T19:24:29.939Z,11.22
2018-03-27T19:26:58.342Z,10.91
2018-03-27T19:29:26.678Z,10.77
2018-03-27T19:31:55.034Z,10.67
2018-03-27T19:34:23.370Z,10.62
2018-03-27T19:36:51.714Z,10.58
2018-03-27T19:39:20.042Z,10.57
2018-03-27T19:41:48.393Z,10.59
2018-03-27T19:44:16.731Z,10.57
2018-03-27T19:46:45.093Z,10.56
2018-03-27T19:49:31.134Z,10.59
2018-03-27T19:52:02.314Z,10.72
2018-03-27T19:54:30.649Z,10.87
2018-03-27T19:56:59.001Z,10.93
2018-03-27T19:59:27.371Z,10.98
2018-03-27T20:01:55.818Z,11.10
2018-03-27T20:04:24.866Z,11.19
2018-03-27T20:06:53.206Z,11.21
2018-03-27T20:09:21.534Z,11.15
2018-03-27T20:11:49.886Z,11.07
2018-03-27T20:14:18.239Z,11.02
2018-03-27T20:16:46.610Z,10.92
2018-03-27T20:19:14.963Z,10.85
2018-03-27T20:21:43.520Z,10.86
2018-03-27T20:24:12.382Z,10.81
2018-03-27T20:26:40.745Z,10.76
2018-03-27T20:29:09.066Z,10.72
2018-03-27T20:31:37.413Z,10.63
2018-03-27T20:34:05.742Z,10.67
2018-03-27T20:36:34.093Z,10.57
2018-03-27T20:39:02.421Z,10.55
2018-03-27T20:41:30.775Z,10.61
2018-03-27T20:44:00.122Z,10.65
2018-03-27T20:46:28.470Z,10.48
2018-03-27T20:48:56.809Z,10.36
2018-03-27T20:51:25.154Z,10.26
2018-03-27T20:53:53.485Z,10.19
2018-03-27T20:56:21.819Z,10.19
2018-03-27T20:58:50.170Z,10.22
2018-03-27T21:01:18.493Z,10.23
2018-03-27T21:03:46.963Z,10.19
2018-03-27T21:06:15.283Z,10.20
2018-03-27T21:08:43.630Z,10.09
2018-03-27T21:11:11.960Z,9.99
2018-03-27T21:13:40.306Z,10.02
2018-03-27T21:16:08.630Z,9.98
2018-03-27T21:18:36.970Z,9.93
2018-03-27T21:21:05.312Z,9.89
2018-03-27T21:23:33.647Z,9.80
2018-03-27T21:26:01.963Z,9.75
2018-03-27T21:28:30.306Z,9.71
2018-03-27T21:30:58.631Z,9.72
2018-03-27T21:33:26.985Z,9.80
2018-03-27T21:35:55.304Z,9.75
2018-03-27T21:38:23.646Z,9.84
2018-03-27T21:40:51.975Z,9.83
2018-03-27T21:43:20.319Z,9.78
2018-03-27T21:45:48.651Z,9.78
2018-03-27T21:48:16.994Z,9.73
2018-03-27T21:50:45.324Z,9.77
2018-03-27T21:53:13.667Z,9.82
2018-03-27T21:55:41.991Z,9.80
2018-03-27T21:58:10.341Z,9.78
2018-03-27T22:00:38.660Z,9.76
2018-03-27T22:03:07.002Z,9.71
2018-03-27T22:05:35.329Z,9.78
2018-03-27T22:08:03.729Z,9.85
2018-03-27T22:10:32.034Z,9.75
2018-03-27T22:13:00.388Z,10.38
2018-03-27T22:15:28.713Z,9.91
2018-03-27T22:17:57.053Z,9.72
2018-03-27T22:20:25.794Z,9.61
2018-03-27T22:22:54.138Z,9.53
2018-03-27T22:25:22.468Z,9.50
2018-03-27T22:27:50.818Z,9.50
2018-03-27T22:30:19.142Z,9.50
2018-03-27T22:32:47.483Z,9.52
2018-03-27T22:35:15.802Z,9.52
2018-03-27T22:37:44.160Z,9.43
2018-03-27T22:40:12.618Z,9.51
2018-03-27T22:42:40.962Z,9.57
2018-03-27T22:45:09.286Z,9.61
2018-03-27T22:47:37.634Z,9.59
2018-03-27T22:50:05.953Z,9.54
2018-03-27T22:52:34.318Z,9.53
2018-03-27T22:55:02.644Z,9.56
2018-03-27T22:57:30.962Z,9.60
2018-03-27T22:59:59.309Z,9.56
2018-03-27T23:02:27.625Z,9.54
2018-03-27T23:04:55.969Z,9.61
2018-03-27T23:07:24.299Z,9.60
2018-03-27T23:09:52.643Z,9.69
2018-03-27T23:12:20.982Z,9.60
2018-03-27T23:14:49.318Z,9.58
2018-03-27T23:17:17.786Z,9.63
2018-03-27T23:19:46.161Z,9.62
2018-03-27T23:22:26.368Z,9.63
2018-03-27T23:24:54.710Z,9.62
2018-03-27T23:27:23.033Z,10.65
2018-03-27T23:29:51.386Z,10.06
2018-03-27T23:32:19.710Z,9.85
2018-03-27T23:34:48.053Z,9.75
2018-03-27T23:37:16.374Z,9.72
2018-03-27T23:39:44.728Z,9.74
2018-03-27T23:42:13.042Z,9.60
2018-03-27T23:44:41.602Z,9.62
2018-03-27T23:47:09.934Z,9.63
2018-03-27T23:49:38.286Z,9.69
2018-03-27T23:52:06.636Z,9.74
2018-03-27T23:54:34.950Z,9.76
2018-03-27T23:57:03.270Z,9.69
2018-03-27T23:59:31.614Z,9.68
